createdAt,value
2023-03-04T00:01:17.874Z,97662.97
2023-03-04T00:03:20.580Z,97666.47
2023-03-04T00:05:23.220Z,97675.38
2023-03-04T00:07:26.011Z,97667.56
2023-03-04T00:09:28.678Z,97661.31
2023-03-04T00:11:32.477Z,97661.75
2023-03-04T00:13:35.173Z,97662.47
2023-03-04T00:15:37.777Z,97661.94
2023-03-04T00:17:40.366Z,97670.22
2023-03-04T00:19:42.946Z,97667.16
2023-03-04T00:21:45.665Z,97666.31
2023-03-04T00:23:48.520Z,97668.72
2023-03-04T00:25:51.182Z,97674.03
2023-03-04T00:27:53.930Z,97673.44
2023-03-04T00:29:57.118Z,97674.47
2023-03-04T00:31:59.901Z,97675.50
2023-03-04T00:34:02.707Z,97666.59
2023-03-04T00:36:05.836Z,97678.19
2023-03-04T00:38:09.273Z,97669.28
2023-03-04T00:40:12.634Z,97669.78
2023-03-04T00:42:15.219Z,97683.59
2023-03-04T00:44:17.910Z,97672.81
2023-03-04T00:46:22.124Z,97670.38
2023-03-04T00:48:24.880Z,97675.53
2023-03-04T00:50:27.580Z,97667.97
2023-03-04T00:52:30.313Z,97673.38
2023-03-04T00:54:33.320Z,97679.28
2023-03-04T00:56:35.902Z,97674.41
2023-03-04T00:58:39.616Z,97665.19
2023-03-04T01:00:42.286Z,97674.31
2023-03-04T01:02:44.920Z,97674.53
2023-03-04T01:04:47.549Z,97674.22
2023-03-04T01:06:50.307Z,97672.38
2023-03-04T01:08:53.068Z,97674.22
2023-03-04T01:10:55.720Z,97662.38
2023-03-04T01:12:58.515Z,97676.38
2023-03-04T01:15:01.151Z,97669.88
2023-03-04T01:17:04.265Z,97663.41
2023-03-04T01:19:06.839Z,97670.66
2023-03-04T01:21:09.604Z,97667.44
2023-03-04T01:23:12.234Z,97669.88
2023-03-04T01:25:15.062Z,97670.66
2023-03-04T01:27:17.752Z,97676.66
2023-03-04T01:29:20.420Z,97688.22
2023-03-04T01:31:23.086Z,97679.63
2023-03-04T01:33:25.763Z,97677.53
2023-03-04T01:35:28.645Z,97685.88
2023-03-04T01:37:31.463Z,97682.91
2023-03-04T01:39:34.087Z,97683.44
2023-03-04T01:41:36.748Z,97689.84
2023-03-04T01:43:39.910Z,97682.28
2023-03-04T01:45:42.619Z,97683.06
2023-03-04T01:47:49.243Z,97687.06
2023-03-04T01:49:56.234Z,97674.38
2023-03-04T01:51:58.919Z,97691.34
2023-03-04T01:54:01.519Z,97689.19
2023-03-04T01:56:16.987Z,97682.72
2023-03-04T01:58:19.689Z,97682.91
2023-03-04T02:00:31.133Z,97681.84
2023-03-04T02:02:33.855Z,97679.13
2023-03-04T02:04:36.810Z,97679.94
2023-03-04T02:06:41.538Z,97682.91
2023-03-04T02:08:44.081Z,97684.22
2023-03-04T02:10:47.723Z,97690.13
2023-03-04T02:13:11.338Z,97689.31
2023-03-04T02:15:14.070Z,97690.91
2023-03-04T02:17:16.684Z,97689.03
2023-03-04T02:19:41.015Z,97688.72
2023-03-04T02:21:43.656Z,97686.34
2023-03-04T02:24:07.786Z,97685.25
2023-03-04T02:26:17.927Z,97682.25
2023-03-04T02:28:21.273Z,97679.56
2023-03-04T02:30:25.797Z,97682.47
2023-03-04T02:32:28.619Z,97692.97
2023-03-04T02:34:34.239Z,97690.78
2023-03-04T02:36:37.196Z,97684.88
2023-03-04T02:38:39.889Z,97685.06
2023-03-04T02:40:46.956Z,97695.28
2023-03-04T02:42:49.606Z,97684.50
2023-03-04T02:45:00.831Z,97685.81
2023-03-04T02:47:06.640Z,97683.41
2023-03-04T02:49:09.360Z,97686.38
2023-03-04T02:51:12.345Z,97679.09
2023-03-04T02:53:15.721Z,97678.00
2023-03-04T02:55:18.372Z,97681.50
2023-03-04T02:57:21.060Z,97678.50
2023-03-04T02:59:24.430Z,97675.81
2023-03-04T03:01:29.407Z,97667.44
2023-03-04T03:03:31.993Z,97667.44
2023-03-04T03:05:35.827Z,97668.00
2023-03-04T03:07:38.467Z,97668.81
2023-03-04T03:09:41.183Z,97676.91
2023-03-04T03:11:43.883Z,97675.81
2023-03-04T03:13:46.452Z,97675.81
2023-03-04T03:15:50.115Z,97679.31
2023-03-04T03:17:52.895Z,97671.22
2023-03-04T03:19:55.492Z,97677.50
2023-03-04T03:21:58.185Z,97665.91
2023-03-04T03:24:00.955Z,97675.31
2023-03-04T03:26:05.038Z,97678.22
2023-03-04T03:28:07.743Z,97677.91
2023-03-04T03:30:13.393Z,97666.31
2023-03-04T03:32:16.140Z,97668.31
2023-03-04T03:34:18.913Z,97661.31
2023-03-04T03:36:21.659Z,97665.69
2023-03-04T03:38:24.477Z,97660.28
2023-03-04T03:40:27.167Z,97659.41
2023-03-04T03:42:29.812Z,97654.84
2023-03-04T03:44:32.910Z,97661.81
2023-03-04T03:46:35.721Z,97660.22
2023-03-04T03:48:38.478Z,97656.41
2023-03-04T03:50:41.111Z,97663.63
2023-03-04T03:52:43.716Z,97660.94
2023-03-04T03:54:46.346Z,97661.94
2023-03-04T03:56:49.017Z,97668.13
2023-03-04T03:58:51.666Z,97664.34
2023-03-04T04:00:55.890Z,97665.94
2023-03-04T04:03:01.363Z,97672.94
2023-03-04T04:05:04.412Z,97677.44
2023-03-04T04:07:07.153Z,97670.16
2023-03-04T04:09:09.943Z,97679.56
2023-03-04T04:11:13.873Z,97667.91
2023-03-04T04:13:16.620Z,97676.47
2023-03-04T04:15:19.360Z,97681.31
2023-03-04T04:17:21.992Z,97677.59
2023-03-04T04:19:24.606Z,97675.06
2023-03-04T04:21:28.256Z,97677.78
2023-03-04T04:23:31.331Z,97681.88
2023-03-04T04:25:33.969Z,97682.09
2023-03-04T04:27:36.943Z,97682.28
2023-03-04T04:29:41.137Z,97681.22
2023-03-04T04:31:43.784Z,97682.78
2023-03-04T04:33:46.397Z,97677.91
2023-03-04T04:35:49.113Z,97678.91
2023-03-04T04:37:51.769Z,97680.59
2023-03-04T04:39:55.664Z,97665.94
2023-03-04T04:41:58.303Z,97679.63
2023-03-04T04:44:00.873Z,97674.22
2023-03-04T04:46:03.521Z,97670.22
2023-03-04T04:48:06.371Z,97668.31
2023-03-04T04:50:09.904Z,97670.44
2023-03-04T04:52:12.569Z,97671.44
2023-03-04T04:54:15.455Z,97671.03
2023-03-04T04:56:22.168Z,97674.25
2023-03-04T04:58:24.768Z,97670.56
2023-03-04T05:00:27.366Z,97682.06
2023-03-04T05:02:30.128Z,97677.97
2023-03-04T05:04:32.746Z,97669.56
2023-03-04T05:06:35.423Z,97682.47
2023-03-04T05:08:38.473Z,97675.47
2023-03-04T05:10:41.190Z,97662.78
2023-03-04T05:12:45.052Z,97670.44
2023-03-04T05:14:47.754Z,97660.88
2023-03-04T05:16:50.500Z,97665.44
2023-03-04T05:18:53.099Z,97660.94
2023-03-04T05:20:58.734Z,97657.84
2023-03-04T05:23:01.345Z,97665.38
2023-03-04T05:25:04.146Z,97657.44
2023-03-04T05:27:06.953Z,97666.03
2023-03-04T05:29:09.645Z,97671.34
2023-03-04T05:31:12.821Z,97662.44
2023-03-04T05:33:18.237Z,97664.84
2023-03-04T05:35:20.973Z,97669.53
2023-03-04T05:37:23.681Z,97672.03
2023-03-04T05:39:26.293Z,97658.72
2023-03-04T05:41:29.010Z,97667.03
2023-03-04T05:43:32.573Z,97661.22
2023-03-04T05:45:35.248Z,97658.50
2023-03-04T05:47:37.883Z,97659.84
2023-03-04T05:49:41.974Z,97665.38
2023-03-04T05:51:44.679Z,97653.84
2023-03-04T05:53:47.705Z,97662.06
2023-03-04T05:55:50.877Z,97661.78
2023-03-04T05:57:53.821Z,97659.16
2023-03-04T05:59:56.503Z,97661.25
2023-03-04T06:01:59.153Z,97664.47
2023-03-04T06:04:01.893Z,97671.69
2023-03-04T06:06:04.792Z,97664.38
2023-03-04T06:08:07.434Z,97660.03
2023-03-04T06:10:12.301Z,97662.44
2023-03-04T06:12:15.229Z,97662.34
2023-03-04T06:14:17.993Z,97657.25
2023-03-04T06:16:20.727Z,97651.81
2023-03-04T06:18:25.096Z,97652.00
2023-03-04T06:20:27.884Z,97659.09
2023-03-04T06:22:30.517Z,97660.47
2023-03-04T06:24:33.127Z,97657.94
2023-03-04T06:26:35.672Z,97656.63
2023-03-04T06:28:38.313Z,97650.53
2023-03-04T06:30:40.988Z,97653.75
2023-03-04T06:32:44.570Z,97652.25
2023-03-04T06:34:47.176Z,97651.72
2023-03-04T06:36:49.845Z,97657.44
2023-03-04T06:38:52.428Z,97658.03
2023-03-04T06:40:57.343Z,97656.59
2023-03-04T06:43:00.599Z,97647.03
2023-03-04T06:45:04.248Z,97657.25
2023-03-04T06:47:08.423Z,97656.78
2023-03-04T06:49:11.289Z,97657.69
2023-03-04T06:51:15.373Z,97657.31
2023-03-04T06:53:17.926Z,97659.50
2023-03-04T06:55:20.648Z,97649.47
2023-03-04T06:57:23.472Z,97649.06
2023-03-04T06:59:26.159Z,97646.75
2023-03-04T07:01:30.202Z,97645.78
2023-03-04T07:03:32.851Z,97643.72
2023-03-04T07:05:35.445Z,97645.13
2023-03-04T07:07:38.957Z,97639.47
2023-03-04T07:09:41.575Z,97645.84
2023-03-04T07:11:44.651Z,97641.94
2023-03-04T07:13:47.379Z,97639.50
2023-03-04T07:15:50.022Z,97636.94
2023-03-04T07:17:52.952Z,97642.91
2023-03-04T07:19:55.557Z,97641.53
2023-03-04T07:21:58.388Z,97640.66
2023-03-04T07:24:01.881Z,97642.13
2023-03-04T07:26:05.109Z,97636.22
2023-03-04T07:28:07.669Z,97636.34
2023-03-04T07:30:11.305Z,97637.31
2023-03-04T07:32:14.037Z,97638.06
2023-03-04T07:34:16.732Z,97639.31
2023-03-04T07:36:20.265Z,97641.69
2023-03-04T07:38:22.941Z,97628.41
2023-03-04T07:40:25.983Z,97634.94
2023-03-04T07:42:28.717Z,97635.13
2023-03-04T07:44:31.456Z,97626.28
2023-03-04T07:46:34.634Z,97632.56
2023-03-04T07:48:38.065Z,97625.88
2023-03-04T07:50:42.257Z,97621.88
2023-03-04T07:52:47.395Z,97621.41
2023-03-04T07:54:51.557Z,97622.06
2023-03-04T07:56:54.842Z,97611.81
2023-03-04T07:58:58.442Z,97613.69
2023-03-04T08:01:01.320Z,97611.06
2023-03-04T08:03:04.060Z,97603.84
2023-03-04T08:05:06.930Z,97609.28
2023-03-04T08:07:09.586Z,97608.56
2023-03-04T08:09:13.928Z,97614.16
2023-03-04T08:11:19.493Z,97606.16
2023-03-04T08:13:23.867Z,97607.94
2023-03-04T08:15:28.616Z,97606.53
2023-03-04T08:17:31.745Z,97607.47
2023-03-04T08:19:34.450Z,97608.72
2023-03-04T08:21:37.246Z,97612.13
2023-03-04T08:23:42.192Z,97604.19
2023-03-04T08:25:45.234Z,97608.94
2023-03-04T08:27:47.861Z,97602.25
2023-03-04T08:29:50.463Z,97600.78
2023-03-04T08:31:54.686Z,97603.09
2023-03-04T08:33:57.357Z,97599.50
2023-03-04T08:36:00.253Z,97593.44
2023-03-04T08:38:02.927Z,97595.22
2023-03-04T08:40:06.109Z,97586.41
2023-03-04T08:42:08.728Z,97583.59
2023-03-04T08:44:12.213Z,97574.94
2023-03-04T08:46:15.076Z,97583.88
2023-03-04T08:48:18.797Z,97584.09
2023-03-04T08:50:22.954Z,97580.69
2023-03-04T08:52:25.967Z,97578.19
2023-03-04T08:54:28.568Z,97580.28
2023-03-04T08:56:31.266Z,97569.63
2023-03-04T08:58:37.059Z,97563.25
2023-03-04T09:00:44.038Z,97569.28
2023-03-04T09:02:46.670Z,97569.34
2023-03-04T09:04:49.292Z,97573.03
2023-03-04T09:06:53.887Z,97567.00
2023-03-04T09:08:56.637Z,97561.63
2023-03-04T09:10:59.369Z,97556.22
2023-03-04T09:13:02.156Z,97556.63
2023-03-04T09:15:11.568Z,97559.13
2023-03-04T09:17:14.667Z,97559.19
2023-03-04T09:19:17.326Z,97549.84
2023-03-04T09:21:20.242Z,97554.53
2023-03-04T09:23:23.499Z,97556.91
2023-03-04T09:25:26.433Z,97544.56
2023-03-04T09:27:29.352Z,97550.13
2023-03-04T09:29:32.327Z,97544.69
2023-03-04T09:31:35.223Z,97544.38
2023-03-04T09:33:39.456Z,97546.66
2023-03-04T09:35:43.279Z,97538.50
2023-03-04T09:37:46.916Z,97538.03
2023-03-04T09:39:50.593Z,97541.31
2023-03-04T09:41:59.131Z,97532.69
2023-03-04T09:44:15.362Z,97535.78
2023-03-04T09:46:37.917Z,97533.72
2023-03-04T09:48:47.216Z,97536.50
2023-03-04T09:51:02.552Z,97530.94
2023-03-04T09:53:34.375Z,97527.75
2023-03-04T09:55:45.041Z,97534.75
2023-03-04T09:58:23.861Z,97523.41
2023-03-04T10:00:38.500Z,97526.31
2023-03-04T10:03:07.123Z,97518.16
2023-03-04T10:05:17.324Z,97517.97
2023-03-04T10:07:24.509Z,97509.97
2023-03-04T10:09:33.839Z,97515.19
2023-03-04T10:11:44.616Z,97513.88
2023-03-04T10:14:16.443Z,97513.09
2023-03-04T10:16:23.543Z,97503.97
2023-03-04T10:18:34.247Z,97507.56
2023-03-04T10:20:50.403Z,97504.50
2023-03-04T10:23:09.646Z,97491.84
2023-03-04T10:25:18.201Z,97499.13
2023-03-04T10:27:53.111Z,97497.88
2023-03-04T10:30:24.401Z,97483.66
2023-03-04T10:33:27.194Z,97486.88
2023-03-04T10:35:41.403Z,97485.94
2023-03-04T10:37:51.097Z,97478.66
2023-03-04T10:39:54.197Z,97477.72
2023-03-04T10:42:19.042Z,97478.09
2023-03-04T10:44:21.724Z,97472.03
2023-03-04T10:46:25.500Z,97473.81
2023-03-04T10:48:30.967Z,97464.69
2023-03-04T10:50:33.658Z,97470.59
2023-03-04T10:52:46.545Z,97468.84
2023-03-04T10:54:58.110Z,97465.56
2023-03-04T10:57:04.783Z,97464.88
2023-03-04T10:59:38.451Z,97469.72
2023-03-04T11:01:41.341Z,97464.59
2023-03-04T11:03:49.682Z,97463.16
2023-03-04T11:06:03.809Z,97461.78
2023-03-04T11:08:07.002Z,97455.09
2023-03-04T11:10:17.322Z,97450.16
2023-03-04T11:12:22.692Z,97441.25
2023-03-04T11:14:30.432Z,97444.91
2023-03-04T11:16:35.051Z,97442.00
2023-03-04T11:18:57.221Z,97438.81
2023-03-04T11:21:01.072Z,97439.97
2023-03-04T11:23:23.853Z,97438.53
2023-03-04T11:25:31.929Z,97435.03
2023-03-04T11:27:45.051Z,97433.75
2023-03-04T11:29:55.941Z,97429.72
2023-03-04T11:32:01.561Z,97421.25
2023-03-04T11:34:04.477Z,97426.88
2023-03-04T11:36:22.340Z,97426.88
2023-03-04T11:38:38.389Z,97417.13
2023-03-04T11:40:50.226Z,97413.78
2023-03-04T11:42:55.916Z,97421.59
2023-03-04T11:44:58.679Z,97411.09
2023-03-04T11:47:26.255Z,97408.38
2023-03-04T11:49:41.029Z,97408.22
2023-03-04T11:52:10.717Z,97402.16
2023-03-04T11:54:16.659Z,97402.66
2023-03-04T11:56:39.792Z,97392.28
2023-03-04T11:59:10.040Z,97399.78
2023-03-04T12:01:20.994Z,97397.72
2023-03-04T12:04:03.783Z,97402.81
2023-03-04T12:06:17.233Z,97396.09
2023-03-04T12:08:56.912Z,97392.47
2023-03-04T12:11:05.287Z,97386.88
2023-03-04T12:13:51.171Z,97386.59
2023-03-04T12:16:12.628Z,97386.63
2023-03-04T12:18:41.477Z,97383.59
2023-03-04T12:21:05.367Z,97384.88
2023-03-04T12:23:32.822Z,97379.13
2023-03-04T12:25:41.356Z,97382.47
2023-03-04T12:27:55.798Z,97370.66
2023-03-04T12:30:27.993Z,97367.34
2023-03-04T12:32:59.518Z,97373.53
2023-03-04T12:35:29.162Z,97364.81
2023-03-04T12:38:06.033Z,97361.91
2023-03-04T12:40:33.254Z,97364.28
2023-03-04T12:42:58.700Z,97362.34
2023-03-04T12:45:01.264Z,97363.25
2023-03-04T12:47:26.881Z,97359.56
2023-03-04T12:50:00.014Z,97358.78
2023-03-04T12:52:08.688Z,97354.69
2023-03-04T12:54:30.917Z,97355.66
2023-03-04T12:56:37.698Z,97354.69
2023-03-04T12:58:40.435Z,97351.69
2023-03-04T13:00:48.716Z,97350.72
2023-03-04T13:03:06.442Z,97352.47
2023-03-04T13:05:25.428Z,97348.00
2023-03-04T13:07:41.011Z,97355.97
2023-03-04T13:09:57.726Z,97341.47
2023-03-04T13:12:20.318Z,97345.31
2023-03-04T13:14:27.652Z,97337.81
2023-03-04T13:16:42.524Z,97333.50
2023-03-04T13:18:45.413Z,97336.69
2023-03-04T13:21:25.445Z,97334.09
2023-03-04T13:23:32.202Z,97333.78
2023-03-04T13:25:44.508Z,97331.88
2023-03-04T13:27:50.976Z,97332.03
2023-03-04T13:29:53.673Z,97327.47
2023-03-04T13:32:11.063Z,97321.56
2023-03-04T13:34:43.725Z,97327.03
2023-03-04T13:36:55.561Z,97321.44
2023-03-04T13:39:18.454Z,97317.31
2023-03-04T13:41:22.358Z,97326.56
2023-03-04T13:43:38.757Z,97323.22
2023-03-04T13:45:41.425Z,97323.88
2023-03-04T13:47:47.320Z,97320.50
2023-03-04T13:49:49.923Z,97316.22
2023-03-04T13:51:53.174Z,97319.72
2023-03-04T13:53:59.210Z,97311.59
2023-03-04T13:56:38.136Z,97323.03
2023-03-04T13:58:41.993Z,97303.94
2023-03-04T14:00:53.542Z,97318.91
2023-03-04T14:02:56.540Z,97306.81
2023-03-04T14:05:01.825Z,97308.72
2023-03-04T14:07:45.161Z,97304.56
2023-03-04T14:09:56.643Z,97305.81
2023-03-04T14:12:04.371Z,97301.50
2023-03-04T14:14:12.433Z,97297.84
2023-03-04T14:16:21.415Z,97292.13
2023-03-04T14:18:28.349Z,97295.13
2023-03-04T14:20:38.702Z,97297.16
2023-03-04T14:22:42.073Z,97299.06
2023-03-04T14:25:05.992Z,97292.53
2023-03-04T14:27:13.881Z,97297.81
2023-03-04T14:29:30.933Z,97287.78
2023-03-04T14:31:36.575Z,97289.19
2023-03-04T14:33:44.528Z,97295.22
2023-03-04T14:35:50.094Z,97299.19
2023-03-04T14:37:58.604Z,97292.16
2023-03-04T14:40:02.796Z,97292.13
2023-03-04T14:42:12.437Z,97281.94
2023-03-04T14:44:30.688Z,97288.63
2023-03-04T14:47:07.467Z,97281.44
2023-03-04T14:49:15.835Z,97280.97
2023-03-04T14:51:41.822Z,97281.09
2023-03-04T14:53:54.962Z,97282.34
2023-03-04T14:56:09.242Z,97286.00
2023-03-04T14:58:23.440Z,97278.50
2023-03-04T15:00:31.065Z,97280.25
2023-03-04T15:02:39.684Z,97277.22
2023-03-04T15:04:43.111Z,97278.84
2023-03-04T15:06:53.861Z,97273.25
2023-03-04T15:09:09.225Z,97285.97
2023-03-04T15:11:22.931Z,97277.38
2023-03-04T15:13:40.703Z,97284.97
2023-03-04T15:15:46.177Z,97277.69
2023-03-04T15:18:02.239Z,97286.72
2023-03-04T15:20:07.514Z,97278.63
2023-03-04T15:22:10.837Z,97280.03
2023-03-04T15:24:15.552Z,97285.13
2023-03-04T15:26:18.328Z,97281.34
2023-03-04T15:28:21.555Z,97271.63
2023-03-04T15:30:27.600Z,97280.41
2023-03-04T15:32:30.261Z,97278.63
2023-03-04T15:34:32.909Z,97275.59
2023-03-04T15:36:35.570Z,97278.13
2023-03-04T15:38:38.419Z,97271.13
2023-03-04T15:40:43.453Z,97275.75
2023-03-04T15:42:46.118Z,97263.34
2023-03-04T15:44:48.758Z,97270.63
2023-03-04T15:46:51.339Z,97270.81
2023-03-04T15:48:53.984Z,97260.66
2023-03-04T15:51:01.792Z,97259.22
2023-03-04T15:53:08.875Z,97272.25
2023-03-04T15:55:22.091Z,97263.66
2023-03-04T15:57:26.851Z,97257.94
2023-03-04T15:59:29.689Z,97260.75
2023-03-04T16:01:32.415Z,97256.78
2023-03-04T16:03:35.075Z,97267.94
2023-03-04T16:05:38.505Z,97264.78
2023-03-04T16:07:42.631Z,97263.34
2023-03-04T16:09:49.308Z,97258.25
2023-03-04T16:11:53.650Z,97263.81
2023-03-04T16:13:56.329Z,97252.84
2023-03-04T16:15:59.016Z,97259.38
2023-03-04T16:18:01.705Z,97254.75
2023-03-04T16:20:04.931Z,97254.13
2023-03-04T16:22:07.748Z,97251.91
2023-03-04T16:24:22.053Z,97250.31
2023-03-04T16:26:26.358Z,97256.03
2023-03-04T16:28:29.007Z,97251.63
2023-03-04T16:30:32.126Z,97251.44
2023-03-04T16:32:35.185Z,97247.94
2023-03-04T16:34:38.106Z,97243.31
2023-03-04T16:36:40.868Z,97246.03
2023-03-04T16:38:43.644Z,97244.59
2023-03-04T16:40:46.511Z,97250.78
2023-03-04T16:42:49.107Z,97242.69
2023-03-04T16:44:51.955Z,97241.91
2023-03-04T16:46:54.554Z,97247.59
2023-03-04T16:48:57.408Z,97240.91
2023-03-04T16:51:03.176Z,97246.31
2023-03-04T16:53:06.566Z,97236.16
2023-03-04T16:55:20.983Z,97238.22
2023-03-04T16:57:23.887Z,97244.91
2023-03-04T16:59:27.228Z,97228.69
2023-03-04T17:01:30.267Z,97237.91
2023-03-04T17:03:33.388Z,97238.72
2023-03-04T17:05:36.181Z,97232.03
2023-03-04T17:07:38.741Z,97243.97
2023-03-04T17:09:41.841Z,97235.72
2023-03-04T17:11:44.738Z,97243.66
2023-03-04T17:13:47.999Z,97236.81
2023-03-04T17:15:50.644Z,97243.81
2023-03-04T17:17:53.263Z,97243.50
2023-03-04T17:19:56.054Z,97240.81
2023-03-04T17:22:00.386Z,97239.88
2023-03-04T17:24:03.642Z,97241.75
2023-03-04T17:26:06.740Z,97238.47
2023-03-04T17:28:09.453Z,97241.16
2023-03-04T17:30:13.737Z,97243.66
2023-03-04T17:32:17.005Z,97239.38
2023-03-04T17:34:19.762Z,97238.72
2023-03-04T17:36:23.492Z,97237.44
2023-03-04T17:38:26.333Z,97235.34
2023-03-04T17:40:28.997Z,97242.34
2023-03-04T17:42:31.725Z,97231.88
2023-03-04T17:47:07.394Z,97231.53
2023-03-04T17:49:14.367Z,97234.81
2023-03-04T17:51:21.741Z,97231.63
2023-03-04T17:53:33.650Z,97234.03
2023-03-04T17:55:37.806Z,97236.44
2023-03-04T17:58:35.125Z,97242.13
2023-03-04T18:01:13.660Z,97229.25
2023-03-04T18:03:26.194Z,97232.09
2023-03-04T18:05:52.166Z,97238.59
2023-03-04T18:08:11.731Z,97234.59
2023-03-04T18:10:23.929Z,97231.84
2023-03-04T18:12:47.032Z,97238.16
2023-03-04T18:14:57.192Z,97237.38
2023-03-04T18:17:13.476Z,97248.97
2023-03-04T18:19:18.928Z,97253.44
2023-03-04T18:23:59.228Z,97250.63
2023-03-04T18:26:03.101Z,97255.41
2023-03-04T18:28:06.210Z,97248.28
2023-03-04T18:30:11.746Z,97246.38
2023-03-04T18:32:14.508Z,97255.56
2023-03-04T18:36:35.036Z,97250.19
2023-03-04T18:38:37.672Z,97253.69
2023-03-04T18:40:41.250Z,97258.78
2023-03-04T18:42:47.737Z,97256.84
2023-03-04T18:44:50.529Z,97255.56
2023-03-04T18:46:56.445Z,97257.69
2023-03-04T18:49:03.225Z,97249.56
2023-03-04T18:51:06.155Z,97240.34
2023-03-04T18:53:09.005Z,97242.56
2023-03-04T18:55:13.277Z,97243.06
2023-03-04T18:57:17.107Z,97244.78
2023-03-04T18:59:24.614Z,97245.59
2023-03-04T19:01:27.430Z,97252.78
2023-03-04T19:03:30.272Z,97252.44
2023-03-04T19:05:33.886Z,97250.84
2023-03-04T19:07:36.445Z,97253.22
2023-03-04T19:09:39.079Z,97255.47
2023-03-04T19:11:41.740Z,97253.06
2023-03-04T19:13:44.403Z,97242.56
2023-03-04T19:15:47.125Z,97247.66
2023-03-04T19:17:49.869Z,97246.53
2023-03-04T19:19:52.538Z,97251.16
2023-03-04T19:21:55.274Z,97242.56
2023-03-04T19:23:57.957Z,97245.75
2023-03-04T19:26:00.889Z,97241.63
2023-03-04T19:28:05.113Z,97237.94
2023-03-04T19:30:08.699Z,97229.81
2023-03-04T19:32:11.526Z,97226.34
2023-03-04T19:34:14.198Z,97227.72
2023-03-04T19:36:16.837Z,97220.88
2023-03-04T19:38:19.533Z,97228.00
2023-03-04T19:40:22.258Z,97226.50
2023-03-04T19:42:24.972Z,97227.28
2023-03-04T19:44:27.732Z,97204.75
2023-03-04T19:46:32.379Z,97229.09
2023-03-04T19:48:36.726Z,97228.75
2023-03-04T19:50:39.377Z,97228.75
2023-03-04T19:52:43.430Z,97215.88
2023-03-04T19:54:46.200Z,97225.88
2023-03-04T19:56:48.908Z,97219.66
2023-03-04T19:58:55.924Z,97213.19
2023-03-04T20:00:58.613Z,97223.78
2023-03-04T20:03:01.958Z,97213.59
2023-03-04T20:05:05.303Z,97213.72
2023-03-04T20:07:08.062Z,97223.09
2023-03-04T20:09:12.422Z,97215.81
2023-03-04T20:11:15.105Z,97217.09
2023-03-04T20:13:17.675Z,97215.38
2023-03-04T20:15:20.389Z,97222.34
2023-03-04T20:17:23.079Z,97218.44
2023-03-04T20:19:25.734Z,97204.34
2023-03-04T20:21:31.254Z,97210.41
2023-03-04T20:23:35.067Z,97212.19
2023-03-04T20:25:37.854Z,97207.59
2023-03-04T20:27:40.600Z,97210.28
2023-03-04T20:29:44.588Z,97205.06
2023-03-04T20:31:47.263Z,97197.78
2023-03-04T20:33:51.345Z,97197.28
2023-03-04T20:35:54.033Z,97196.78
2023-03-04T20:37:56.791Z,97196.81
2023-03-04T20:39:59.544Z,97203.34
2023-03-04T20:42:02.232Z,97203.84
2023-03-04T20:44:06.606Z,97199.53
2023-03-04T20:46:27.862Z,97203.03
2023-03-04T20:48:30.517Z,97198.56
2023-03-04T20:50:33.151Z,97191.25
2023-03-04T20:52:35.884Z,97195.53
2023-03-04T20:54:40.627Z,97189.34
2023-03-04T20:56:43.584Z,97195.19
2023-03-04T20:58:48.828Z,97188.84
2023-03-04T21:00:52.024Z,97190.53
2023-03-04T21:02:55.290Z,97184.84
2023-03-04T21:04:58.088Z,97186.72
2023-03-04T21:07:03.403Z,97188.00
2023-03-04T21:09:09.695Z,97185.94
2023-03-04T21:11:14.109Z,97175.16
2023-03-04T21:13:20.270Z,97176.25
2023-03-04T21:15:23.026Z,97177.69
2023-03-04T21:17:25.667Z,97181.94
2023-03-04T21:19:37.070Z,97179.44
2023-03-04T21:21:39.714Z,97172.75
2023-03-04T21:23:42.619Z,97155.75
2023-03-04T21:25:57.976Z,97169.44
2023-03-04T21:28:00.552Z,97176.25
2023-03-04T21:30:03.216Z,97175.34
2023-03-04T21:32:24.299Z,97171.34
2023-03-04T21:34:44.034Z,97173.56
2023-03-04T21:36:48.128Z,97166.56
2023-03-04T21:38:50.795Z,97164.13
2023-03-04T21:40:53.627Z,97169.31
2023-03-04T21:42:56.210Z,97161.34
2023-03-04T21:44:58.894Z,97158.00
2023-03-04T21:47:01.920Z,97161.00
2023-03-04T21:49:06.039Z,97164.00
2023-03-04T21:51:11.611Z,97162.09
2023-03-04T21:53:14.320Z,97156.66
2023-03-04T21:55:16.965Z,97151.38
2023-03-04T21:57:19.899Z,97151.53
2023-03-04T21:59:23.244Z,97154.56
2023-03-04T22:01:25.895Z,97149.28
2023-03-04T22:03:28.497Z,97147.97
2023-03-04T22:05:31.148Z,97147.19
2023-03-04T22:07:34.765Z,97149.09
2023-03-04T22:09:37.522Z,97141.63
2023-03-04T22:11:40.155Z,97135.25
2023-03-04T22:13:42.979Z,97142.31
2023-03-04T22:15:45.858Z,97138.97
2023-03-04T22:17:48.520Z,97139.47
2023-03-04T22:19:51.167Z,97137.78
2023-03-04T22:21:54.069Z,97125.28
2023-03-04T22:23:56.740Z,97121.75
2023-03-04T22:26:07.929Z,97120.31
2023-03-04T22:28:10.529Z,97117.91
2023-03-04T22:30:14.035Z,97112.94
2023-03-04T22:32:17.350Z,97111.97
2023-03-04T22:34:20.225Z,97112.91
2023-03-04T22:36:22.918Z,97105.91
2023-03-04T22:38:25.514Z,97097.44
2023-03-04T22:40:28.495Z,97093.47
2023-03-04T22:42:31.104Z,97096.06
2023-03-04T22:44:34.675Z,97100.81
2023-03-04T22:46:39.064Z,97099.81
2023-03-04T22:48:42.188Z,97088.06
2023-03-04T22:50:44.793Z,97092.06
2023-03-04T22:52:48.460Z,97098.22
2023-03-04T22:54:51.137Z,97085.53
2023-03-04T22:56:53.722Z,97090.03
2023-03-04T22:58:56.341Z,97091.94
2023-03-04T23:00:59.019Z,97071.66
2023-03-04T23:03:01.674Z,97079.13
2023-03-04T23:05:04.865Z,97076.63
2023-03-04T23:07:07.464Z,97074.44
2023-03-04T23:09:10.043Z,97073.81
2023-03-04T23:11:25.597Z,97070.31
2023-03-04T23:13:29.490Z,97065.06
2023-03-04T23:15:32.125Z,97062.03
2023-03-04T23:17:35.089Z,97062.22
2023-03-04T23:19:37.793Z,97066.00
2023-03-04T23:21:40.678Z,97066.81
2023-03-04T23:23:43.394Z,97055.66
2023-03-04T23:25:46.523Z,97055.56
2023-03-04T23:27:49.204Z,97046.34
2023-03-04T23:29:52.268Z,97053.16
2023-03-04T23:31:54.881Z,97055.72
2023-03-04T23:33:58.413Z,97044.66
2023-03-04T23:36:01.527Z,97047.47
2023-03-04T23:38:04.355Z,97033.53
2023-03-04T23:40:07.682Z,97042.47
2023-03-04T23:42:10.338Z,97042.47
2023-03-04T23:44:13.717Z,97045.66
2023-03-04T23:46:16.501Z,97039.91
2023-03-04T23:48:19.164Z,97029.47
2023-03-04T23:50:22.288Z,97043.09
2023-03-04T23:52:25.011Z,97034.84
2023-03-04T23:54:27.747Z,97027.41
2023-03-04T23:56:31.453Z,97031.53
2023-03-04T23:58:34.164Z,97023.44
